Main page
METAR-TAF:

METAR-TAF

Airports :

Caen – Carpiquet Airport

Caen, France

latitude: 49-11N, longitude: 000-27W, elevation: 78 m

Current weather observation

The report was made 36 minutes ago, at 08:30 UTC
Wind 9 kt from the West, varying between West/Southwest and Northwest
Temperature 20°C
Humidity 73%
Pressure 1021 hPa
Visibility 10 km or more
Few clouds at a height of 2500 ft
Overcast at a height of 3100 ft

METAR: LFRK 150830Z AUTO 28009KT 240V310 9999 FEW025 OVC031 20/15 Q1021 NOSIG

Time: 11:06 (09:06 UTC)

Forecast

The report was made 1 hour and 6 minutes ago, at 08:00 UTC
Forecast valid from 15 at 09 UTC to 15 at 18 UTC
Wind 10 kt from the West
Visibility 10 km or more
Broken clouds at a height of 3000 ft

TAF: LFRK 150800Z 1509/1518 27010KT 9999 BKN030

Weather observations and forecasts of more than 4000 airports (METAR and TAF reports).

The available stations are represented by yellow and red dots on the map.

Hover mouse over dot to see the name of the station.

Then click to see weather observations and forecasts.

To change the map : click on the green buttons with a black cross to zoom in, on the green button with a dash to zoom out, or on the green arrows for adjacent maps.


METAR-TAF: